sensor_id;sensor_type;location;lat;lon;timestamp;temperature;humidity
24226;DHT22;51462;51.422;5.514;2023-05-03T00:00:08;9.40;99.90
24226;DHT22;51462;51.422;5.514;2023-05-03T00:02:35;9.40;99.90
24226;DHT22;51462;51.422;5.514;2023-05-03T00:05:03;9.40;99.90
24226;DHT22;51462;51.422;5.514;2023-05-03T00:07:29;9.30;99.90
24226;DHT22;51462;51.422;5.514;2023-05-03T00:09:55;9.20;99.90
24226;DHT22;51462;51.422;5.514;2023-05-03T00:12:20;9.10;99.90
24226;DHT22;51462;51.422;5.514;2023-05-03T00:14:46;9.10;99.90
24226;DHT22;51462;51.422;5.514;2023-05-03T00:17:12;9.10;99.90
24226;DHT22;51462;51.422;5.514;2023-05-03T00:19:38;9.10;99.90
24226;DHT22;51462;51.422;5.514;2023-05-03T00:22:04;9.00;99.90
24226;DHT22;51462;51.422;5.514;2023-05-03T00:24:29;9.00;99.90
24226;DHT22;51462;51.422;5.514;2023-05-03T00:26:55;9.00;99.90
24226;DHT22;51462;51.422;5.514;2023-05-03T00:29:21;8.90;99.90
24226;DHT22;51462;51.422;5.514;2023-05-03T00:31:47;8.90;99.90
24226;DHT22;51462;51.422;5.514;2023-05-03T00:34:13;8.80;99.90
24226;DHT22;51462;51.422;5.514;2023-05-03T00:36:39;8.80;99.90
24226;DHT22;51462;51.422;5.514;2023-05-03T00:39:05;8.70;99.90
24226;DHT22;51462;51.422;5.514;2023-05-03T00:41:30;8.90;99.90
24226;DHT22;51462;51.422;5.514;2023-05-03T00:43:56;8.80;99.90
24226;DHT22;51462;51.422;5.514;2023-05-03T00:46:21;8.90;99.90
24226;DHT22;51462;51.422;5.514;2023-05-03T00:48:47;8.80;99.90
24226;DHT22;51462;51.422;5.514;2023-05-03T00:51:14;8.80;99.90
24226;DHT22;51462;51.422;5.514;2023-05-03T00:53:43;8.80;99.90
24226;DHT22;51462;51.422;5.514;2023-05-03T00:56:09;8.60;99.90
24226;DHT22;51462;51.422;5.514;2023-05-03T00:58:35;8.70;99.90
24226;DHT22;51462;51.422;5.514;2023-05-03T01:01:04;8.70;99.90
24226;DHT22;51462;51.422;5.514;2023-05-03T01:03:31;8.90;99.90
24226;DHT22;51462;51.422;5.514;2023-05-03T01:08:48;9.10;99.90
24226;DHT22;51462;51.422;5.514;2023-05-03T01:11:36;8.90;99.90
24226;DHT22;51462;51.422;5.514;2023-05-03T01:14:19;8.80;99.90
24226;DHT22;51462;51.422;5.514;2023-05-03T01:16:50;8.70;99.90
24226;DHT22;51462;51.422;5.514;2023-05-03T01:19:34;8.50;99.90
24226;DHT22;51462;51.422;5.514;2023-05-03T01:24:50;8.50;99.90
24226;DHT22;51462;51.422;5.514;2023-05-03T01:27:19;8.40;99.90
24226;DHT22;51462;51.422;5.514;2023-05-03T01:29:44;8.40;99.90
24226;DHT22;51462;51.422;5.514;2023-05-03T01:32:17;8.50;99.90
24226;DHT22;51462;51.422;5.514;2023-05-03T01:34:55;8.70;99.90
24226;DHT22;51462;51.422;5.514;2023-05-03T01:37:24;8.50;99.90
24226;DHT22;51462;51.422;5.514;2023-05-03T01:39:55;8.70;99.90
24226;DHT22;51462;51.422;5.514;2023-05-03T01:42:23;9.00;99.90
24226;DHT22;51462;51.422;5.514;2023-05-03T01:44:49;8.70;99.90
24226;DHT22;51462;51.422;5.514;2023-05-03T01:47:15;8.80;99.90
24226;DHT22;51462;51.422;5.514;2023-05-03T01:49:41;9.00;99.90
24226;DHT22;51462;51.422;5.514;2023-05-03T01:52:06;8.70;99.90
24226;DHT22;51462;51.422;5.514;2023-05-03T01:54:32;8.60;99.90
24226;DHT22;51462;51.422;5.514;2023-05-03T01:56:57;8.40;99.90
24226;DHT22;51462;51.422;5.514;2023-05-03T01:59:23;8.30;99.90
24226;DHT22;51462;51.422;5.514;2023-05-03T02:01:48;8.20;99.90
24226;DHT22;51462;51.422;5.514;2023-05-03T02:04:14;8.00;99.90
24226;DHT22;51462;51.422;5.514;2023-05-03T02:06:39;7.90;99.90
24226;DHT22;51462;51.422;5.514;2023-05-03T02:09:05;7.80;99.90
24226;DHT22;51462;51.422;5.514;2023-05-03T02:11:31;7.90;99.90
24226;DHT22;51462;51.422;5.514;2023-05-03T02:13:56;7.70;99.90
24226;DHT22;51462;51.422;5.514;2023-05-03T02:16:22;7.60;99.90
24226;DHT22;51462;51.422;5.514;2023-05-03T02:18:47;7.50;99.90
24226;DHT22;51462;51.422;5.514;2023-05-03T02:21:13;7.40;99.90
24226;DHT22;51462;51.422;5.514;2023-05-03T02:23:39;7.40;99.90
24226;DHT22;51462;51.422;5.514;2023-05-03T02:26:04;7.40;99.90
24226;DHT22;51462;51.422;5.514;2023-05-03T02:28:30;7.40;99.90
24226;DHT22;51462;51.422;5.514;2023-05-03T02:30:55;7.70;99.90
24226;DHT22;51462;51.422;5.514;2023-05-03T02:33:21;7.70;99.90
24226;DHT22;51462;51.422;5.514;2023-05-03T02:35:46;7.70;99.90
24226;DHT22;51462;51.422;5.514;2023-05-03T02:38:12;7.70;99.90
24226;DHT22;51462;51.422;5.514;2023-05-03T02:40:38;7.60;99.90
24226;DHT22;51462;51.422;5.514;2023-05-03T02:43:04;7.70;99.90
24226;DHT22;51462;51.422;5.514;2023-05-03T02:45:29;7.90;99.90
24226;DHT22;51462;51.422;5.514;2023-05-03T02:47:55;7.90;99.90
24226;DHT22;51462;51.422;5.514;2023-05-03T02:50:21;7.70;99.90
24226;DHT22;51462;51.422;5.514;2023-05-03T02:52:46;8.20;99.90
24226;DHT22;51462;51.422;5.514;2023-05-03T02:55:12;8.30;99.90
24226;DHT22;51462;51.422;5.514;2023-05-03T02:57:37;8.20;99.90
24226;DHT22;51462;51.422;5.514;2023-05-03T03:00:04;7.80;99.90
24226;DHT22;51462;51.422;5.514;2023-05-03T03:02:30;7.60;99.90
24226;DHT22;51462;51.422;5.514;2023-05-03T03:04:56;7.50;99.90
24226;DHT22;51462;51.422;5.514;2023-05-03T03:07:21;8.00;99.90
24226;DHT22;51462;51.422;5.514;2023-05-03T03:09:47;8.10;99.90
24226;DHT22;51462;51.422;5.514;2023-05-03T03:12:12;7.90;99.90
24226;DHT22;51462;51.422;5.514;2023-05-03T03:14:38;7.80;99.90
24226;DHT22;51462;51.422;5.514;2023-05-03T03:17:07;7.50;99.90
24226;DHT22;51462;51.422;5.514;2023-05-03T03:19:33;7.30;99.90
24226;DHT22;51462;51.422;5.514;2023-05-03T03:21:58;7.10;99.90
24226;DHT22;51462;51.422;5.514;2023-05-03T03:24:24;7.30;99.90
24226;DHT22;51462;51.422;5.514;2023-05-03T03:26:49;7.30;99.90
24226;DHT22;51462;51.422;5.514;2023-05-03T03:29:15;7.30;99.90
24226;DHT22;51462;51.422;5.514;2023-05-03T03:31:41;7.10;99.90
24226;DHT22;51462;51.422;5.514;2023-05-03T03:34:06;7.10;99.90
24226;DHT22;51462;51.422;5.514;2023-05-03T03:36:32;7.00;99.90
24226;DHT22;51462;51.422;5.514;2023-05-03T03:38:57;6.90;99.90
24226;DHT22;51462;51.422;5.514;2023-05-03T03:41:23;6.80;99.90
24226;DHT22;51462;51.422;5.514;2023-05-03T03:43:49;6.80;99.90
24226;DHT22;51462;51.422;5.514;2023-05-03T03:46:15;6.70;99.90
24226;DHT22;51462;51.422;5.514;2023-05-03T03:48:41;6.70;99.90
24226;DHT22;51462;51.422;5.514;2023-05-03T03:51:06;6.70;99.90
24226;DHT22;51462;51.422;5.514;2023-05-03T03:53:32;6.70;99.90
24226;DHT22;51462;51.422;5.514;2023-05-03T03:55:57;6.60;99.90
24226;DHT22;51462;51.422;5.514;2023-05-03T03:58:23;6.50;99.90
24226;DHT22;51462;51.422;5.514;2023-05-03T04:00:48;6.50;99.90
24226;DHT22;51462;51.422;5.514;2023-05-03T04:03:14;6.60;99.90
24226;DHT22;51462;51.422;5.514;2023-05-03T04:05:40;6.60;99.90
24226;DHT22;51462;51.422;5.514;2023-05-03T04:08:06;6.60;99.90
24226;DHT22;51462;51.422;5.514;2023-05-03T04:10:31;6.50;99.90
24226;DHT22;51462;51.422;5.514;2023-05-03T04:12:57;6.30;99.90
24226;DHT22;51462;51.422;5.514;2023-05-03T04:15:22;6.20;99.90
24226;DHT22;51462;51.422;5.514;2023-05-03T04:17:48;6.30;99.90
24226;DHT22;51462;51.422;5.514;2023-05-03T04:20:14;6.30;99.90
24226;DHT22;51462;51.422;5.514;2023-05-03T04:22:39;6.40;99.90
24226;DHT22;51462;51.422;5.514;2023-05-03T04:25:07;6.50;99.90
24226;DHT22;51462;51.422;5.514;2023-05-03T04:27:33;6.20;99.90
24226;DHT22;51462;51.422;5.514;2023-05-03T04:29:58;6.30;99.90
24226;DHT22;51462;51.422;5.514;2023-05-03T04:32:24;6.30;99.90
24226;DHT22;51462;51.422;5.514;2023-05-03T04:34:50;6.20;99.90
24226;DHT22;51462;51.422;5.514;2023-05-03T04:37:17;6.30;99.90
24226;DHT22;51462;51.422;5.514;2023-05-03T04:39:44;6.30;99.90
24226;DHT22;51462;51.422;5.514;2023-05-03T04:42:11;6.30;99.90
24226;DHT22;51462;51.422;5.514;2023-05-03T04:44:40;6.20;99.90
24226;DHT22;51462;51.422;5.514;2023-05-03T04:47:05;6.20;99.90
24226;DHT22;51462;51.422;5.514;2023-05-03T04:49:31;6.10;99.90
24226;DHT22;51462;51.422;5.514;2023-05-03T04:51:58;6.20;99.90
24226;DHT22;51462;51.422;5.514;2023-05-03T04:54:24;6.10;99.90
24226;DHT22;51462;51.422;5.514;2023-05-03T04:56:49;6.00;99.90
24226;DHT22;51462;51.422;5.514;2023-05-03T04:59:16;6.10;99.90
24226;DHT22;51462;51.422;5.514;2023-05-03T05:01:41;6.20;99.90
24226;DHT22;51462;51.422;5.514;2023-05-03T05:04:07;6.30;99.90
24226;DHT22;51462;51.422;5.514;2023-05-03T05:06:33;6.30;99.90
24226;DHT22;51462;51.422;5.514;2023-05-03T05:08:59;6.40;99.90
24226;DHT22;51462;51.422;5.514;2023-05-03T05:11:24;6.40;99.90
24226;DHT22;51462;51.422;5.514;2023-05-03T05:13:50;6.50;99.90
24226;DHT22;51462;51.422;5.514;2023-05-03T05:16:15;6.90;99.90
24226;DHT22;51462;51.422;5.514;2023-05-03T05:18:42;6.90;99.90
24226;DHT22;51462;51.422;5.514;2023-05-03T05:21:08;6.90;99.90
24226;DHT22;51462;51.422;5.514;2023-05-03T05:23:33;6.80;99.90
24226;DHT22;51462;51.422;5.514;2023-05-03T05:25:59;6.90;99.90
24226;DHT22;51462;51.422;5.514;2023-05-03T05:28:28;6.70;99.90
24226;DHT22;51462;51.422;5.514;2023-05-03T05:30:53;6.70;99.90
24226;DHT22;51462;51.422;5.514;2023-05-03T05:33:19;6.60;99.90
24226;DHT22;51462;51.422;5.514;2023-05-03T05:35:46;6.80;99.90
24226;DHT22;51462;51.422;5.514;2023-05-03T05:38:14;7.00;99.90
24226;DHT22;51462;51.422;5.514;2023-05-03T05:40:39;7.40;99.90
24226;DHT22;51462;51.422;5.514;2023-05-03T05:43:05;8.20;99.90
24226;DHT22;51462;51.422;5.514;2023-05-03T05:45:31;7.90;99.90
24226;DHT22;51462;51.422;5.514;2023-05-03T05:47:57;8.10;99.90
24226;DHT22;51462;51.422;5.514;2023-05-03T05:50:22;8.40;99.90
24226;DHT22;51462;51.422;5.514;2023-05-03T05:52:50;8.40;99.90
24226;DHT22;51462;51.422;5.514;2023-05-03T05:55:17;8.40;99.90
24226;DHT22;51462;51.422;5.514;2023-05-03T05:57:43;8.20;99.90
24226;DHT22;51462;51.422;5.514;2023-05-03T06:00:09;8.10;99.90
24226;DHT22;51462;51.422;5.514;2023-05-03T06:02:42;8.40;99.90
24226;DHT22;51462;51.422;5.514;2023-05-03T06:05:08;8.10;99.90
24226;DHT22;51462;51.422;5.514;2023-05-03T06:07:34;8.80;99.90
24226;DHT22;51462;51.422;5.514;2023-05-03T06:10:00;9.10;99.90
24226;DHT22;51462;51.422;5.514;2023-05-03T06:12:26;8.70;99.90
24226;DHT22;51462;51.422;5.514;2023-05-03T06:14:51;8.90;99.90
24226;DHT22;51462;51.422;5.514;2023-05-03T06:17:17;8.90;99.90
24226;DHT22;51462;51.422;5.514;2023-05-03T06:19:44;9.00;99.90
24226;DHT22;51462;51.422;5.514;2023-05-03T06:22:09;9.00;99.90
24226;DHT22;51462;51.422;5.514;2023-05-03T06:24:35;9.10;99.90
24226;DHT22;51462;51.422;5.514;2023-05-03T06:27:01;9.30;99.90
24226;DHT22;51462;51.422;5.514;2023-05-03T06:29:27;9.30;99.90
24226;DHT22;51462;51.422;5.514;2023-05-03T06:31:52;9.80;99.90
24226;DHT22;51462;51.422;5.514;2023-05-03T06:34:18;9.90;99.90
24226;DHT22;51462;51.422;5.514;2023-05-03T06:36:46;9.70;99.90
24226;DHT22;51462;51.422;5.514;2023-05-03T06:39:11;10.50;99.90
24226;DHT22;51462;51.422;5.514;2023-05-03T06:41:37;10.70;99.90
24226;DHT22;51462;51.422;5.514;2023-05-03T06:44:02;10.70;99.90
24226;DHT22;51462;51.422;5.514;2023-05-03T06:46:28;10.50;99.90
24226;DHT22;51462;51.422;5.514;2023-05-03T06:48:54;10.70;99.90
24226;DHT22;51462;51.422;5.514;2023-05-03T06:51:24;10.80;99.90
24226;DHT22;51462;51.422;5.514;2023-05-03T06:53:54;10.70;99.90
24226;DHT22;51462;51.422;5.514;2023-05-03T06:56:25;10.80;99.90
24226;DHT22;51462;51.422;5.514;2023-05-03T06:58:52;10.90;99.90
24226;DHT22;51462;51.422;5.514;2023-05-03T07:01:17;10.90;99.90
24226;DHT22;51462;51.422;5.514;2023-05-03T07:03:45;11.00;99.90
24226;DHT22;51462;51.422;5.514;2023-05-03T07:06:10;11.00;99.90
24226;DHT22;51462;51.422;5.514;2023-05-03T07:08:36;11.30;99.90
24226;DHT22;51462;51.422;5.514;2023-05-03T07:11:02;11.20;99.90
24226;DHT22;51462;51.422;5.514;2023-05-03T07:13:28;10.80;99.90
24226;DHT22;51462;51.422;5.514;2023-05-03T07:15:54;11.00;99.90
24226;DHT22;51462;51.422;5.514;2023-05-03T07:18:19;11.10;99.90
24226;DHT22;51462;51.422;5.514;2023-05-03T07:20:45;11.30;99.90
24226;DHT22;51462;51.422;5.514;2023-05-03T07:23:11;11.60;99.90
24226;DHT22;51462;51.422;5.514;2023-05-03T07:25:36;11.40;99.90
24226;DHT22;51462;51.422;5.514;2023-05-03T07:28:04;11.40;99.90
24226;DHT22;51462;51.422;5.514;2023-05-03T07:30:29;11.50;99.90
24226;DHT22;51462;51.422;5.514;2023-05-03T07:32:55;11.50;99.90
24226;DHT22;51462;51.422;5.514;2023-05-03T07:35:20;11.30;99.90
24226;DHT22;51462;51.422;5.514;2023-05-03T07:37:47;11.30;99.90
24226;DHT22;51462;51.422;5.514;2023-05-03T07:40:14;11.50;99.90
24226;DHT22;51462;51.422;5.514;2023-05-03T07:42:39;11.60;99.90
24226;DHT22;51462;51.422;5.514;2023-05-03T07:45:05;11.70;99.90
24226;DHT22;51462;51.422;5.514;2023-05-03T07:47:31;11.60;99.90
24226;DHT22;51462;51.422;5.514;2023-05-03T07:50:01;11.80;99.90
24226;DHT22;51462;51.422;5.514;2023-05-03T07:52:29;11.90;99.90
24226;DHT22;51462;51.422;5.514;2023-05-03T07:54:54;11.90;99.90
24226;DHT22;51462;51.422;5.514;2023-05-03T07:57:20;11.90;99.90
24226;DHT22;51462;51.422;5.514;2023-05-03T07:59:48;11.90;99.90
24226;DHT22;51462;51.422;5.514;2023-05-03T08:02:13;12.00;99.90
24226;DHT22;51462;51.422;5.514;2023-05-03T08:04:39;11.90;99.90
24226;DHT22;51462;51.422;5.514;2023-05-03T08:07:04;11.90;99.90
24226;DHT22;51462;51.422;5.514;2023-05-03T08:09:30;12.20;99.90
24226;DHT22;51462;51.422;5.514;2023-05-03T08:11:56;12.40;99.90
24226;DHT22;51462;51.422;5.514;2023-05-03T08:14:22;12.60;99.90
24226;DHT22;51462;51.422;5.514;2023-05-03T08:16:48;12.70;99.90
24226;DHT22;51462;51.422;5.514;2023-05-03T08:19:13;12.60;99.90
24226;DHT22;51462;51.422;5.514;2023-05-03T08:21:39;12.70;99.90
24226;DHT22;51462;51.422;5.514;2023-05-03T08:24:05;12.70;99.90
24226;DHT22;51462;51.422;5.514;2023-05-03T08:26:32;12.70;99.90
24226;DHT22;51462;51.422;5.514;2023-05-03T08:28:58;12.60;99.90
24226;DHT22;51462;51.422;5.514;2023-05-03T08:31:25;12.50;99.90
24226;DHT22;51462;51.422;5.514;2023-05-03T08:33:51;12.50;99.90
24226;DHT22;51462;51.422;5.514;2023-05-03T08:36:16;12.60;99.90
24226;DHT22;51462;51.422;5.514;2023-05-03T08:38:42;12.70;99.90
24226;DHT22;51462;51.422;5.514;2023-05-03T08:43:43;12.90;99.90
24226;DHT22;51462;51.422;5.514;2023-05-03T08:46:12;13.10;99.90
24226;DHT22;51462;51.422;5.514;2023-05-03T08:48:38;13.00;99.90
24226;DHT22;51462;51.422;5.514;2023-05-03T08:51:04;13.10;99.90
24226;DHT22;51462;51.422;5.514;2023-05-03T08:53:30;13.10;99.90
24226;DHT22;51462;51.422;5.514;2023-05-03T08:55:55;13.10;99.90
24226;DHT22;51462;51.422;5.514;2023-05-03T08:58:21;13.10;99.90
24226;DHT22;51462;51.422;5.514;2023-05-03T09:00:47;12.80;99.90
24226;DHT22;51462;51.422;5.514;2023-05-03T09:03:12;13.10;99.90
24226;DHT22;51462;51.422;5.514;2023-05-03T09:05:38;13.00;99.90
24226;DHT22;51462;51.422;5.514;2023-05-03T09:08:07;13.40;99.90
24226;DHT22;51462;51.422;5.514;2023-05-03T09:10:40;13.20;99.90
24226;DHT22;51462;51.422;5.514;2023-05-03T09:13:06;13.10;99.90
24226;DHT22;51462;51.422;5.514;2023-05-03T09:15:33;13.10;99.90
24226;DHT22;51462;51.422;5.514;2023-05-03T09:20:39;13.30;99.90
24226;DHT22;51462;51.422;5.514;2023-05-03T09:23:07;13.30;99.90
24226;DHT22;51462;51.422;5.514;2023-05-03T09:25:59;13.50;99.90
24226;DHT22;51462;51.422;5.514;2023-05-03T09:28:25;13.40;99.90
24226;DHT22;51462;51.422;5.514;2023-05-03T09:31:04;13.50;99.90
24226;DHT22;51462;51.422;5.514;2023-05-03T09:33:31;13.60;99.90
24226;DHT22;51462;51.422;5.514;2023-05-03T09:36:01;13.70;99.90
24226;DHT22;51462;51.422;5.514;2023-05-03T09:38:29;13.70;99.90
24226;DHT22;51462;51.422;5.514;2023-05-03T09:40:55;13.80;99.90
24226;DHT22;51462;51.422;5.514;2023-05-03T09:43:22;13.80;99.90
24226;DHT22;51462;51.422;5.514;2023-05-03T09:45:47;13.80;99.90
24226;DHT22;51462;51.422;5.514;2023-05-03T09:48:13;13.90;99.90
24226;DHT22;51462;51.422;5.514;2023-05-03T09:50:40;13.90;99.90
24226;DHT22;51462;51.422;5.514;2023-05-03T09:53:06;13.80;99.90
24226;DHT22;51462;51.422;5.514;2023-05-03T09:57:58;13.90;99.90
24226;DHT22;51462;51.422;5.514;2023-05-03T10:00:24;14.00;99.90
24226;DHT22;51462;51.422;5.514;2023-05-03T10:02:53;14.10;99.90
24226;DHT22;51462;51.422;5.514;2023-05-03T10:05:20;14.20;99.90
24226;DHT22;51462;51.422;5.514;2023-05-03T10:07:51;14.20;99.90
24226;DHT22;51462;51.422;5.514;2023-05-03T10:10:19;14.20;99.90
24226;DHT22;51462;51.422;5.514;2023-05-03T10:12:45;14.20;99.90
24226;DHT22;51462;51.422;5.514;2023-05-03T10:15:12;14.10;99.90
24226;DHT22;51462;51.422;5.514;2023-05-03T10:17:40;14.20;99.90
24226;DHT22;51462;51.422;5.514;2023-05-03T10:25:30;14.40;99.90
24226;DHT22;51462;51.422;5.514;2023-05-03T10:28:06;14.40;99.90
24226;DHT22;51462;51.422;5.514;2023-05-03T10:30:39;14.50;99.90
24226;DHT22;51462;51.422;5.514;2023-05-03T10:35:50;14.70;99.90
24226;DHT22;51462;51.422;5.514;2023-05-03T10:38:22;14.80;99.90
24226;DHT22;51462;51.422;5.514;2023-05-03T10:40:48;14.80;99.90
24226;DHT22;51462;51.422;5.514;2023-05-03T10:46:02;15.00;99.90
24226;DHT22;51462;51.422;5.514;2023-05-03T10:48:29;15.00;99.90
24226;DHT22;51462;51.422;5.514;2023-05-03T10:50:55;15.10;99.90
24226;DHT22;51462;51.422;5.514;2023-05-03T10:56:06;15.10;99.90
24226;DHT22;51462;51.422;5.514;2023-05-03T10:58:37;15.30;99.90
24226;DHT22;51462;51.422;5.514;2023-05-03T11:01:08;15.40;99.90
24226;DHT22;51462;51.422;5.514;2023-05-03T11:06:09;15.40;99.90
24226;DHT22;51462;51.422;5.514;2023-05-03T11:08:34;15.50;99.90
24226;DHT22;51462;51.422;5.514;2023-05-03T11:11:04;15.70;99.90
24226;DHT22;51462;51.422;5.514;2023-05-03T11:13:34;15.80;99.90
24226;DHT22;51462;51.422;5.514;2023-05-03T11:16:02;15.90;99.90
24226;DHT22;51462;51.422;5.514;2023-05-03T11:18:28;15.90;99.90
24226;DHT22;51462;51.422;5.514;2023-05-03T11:20:54;16.00;99.90
24226;DHT22;51462;51.422;5.514;2023-05-03T11:23:25;16.10;99.90
24226;DHT22;51462;51.422;5.514;2023-05-03T11:25:52;16.10;99.90
24226;DHT22;51462;51.422;5.514;2023-05-03T11:28:17;16.20;99.90
24226;DHT22;51462;51.422;5.514;2023-05-03T11:30:45;16.20;99.90
24226;DHT22;51462;51.422;5.514;2023-05-03T11:33:11;16.60;99.90
24226;DHT22;51462;51.422;5.514;2023-05-03T11:35:37;16.50;99.90
24226;DHT22;51462;51.422;5.514;2023-05-03T11:38:03;16.50;99.90
24226;DHT22;51462;51.422;5.514;2023-05-03T11:40:28;16.70;99.90
24226;DHT22;51462;51.422;5.514;2023-05-03T11:42:56;16.70;99.90
24226;DHT22;51462;51.422;5.514;2023-05-03T11:45:24;16.80;99.90
24226;DHT22;51462;51.422;5.514;2023-05-03T11:47:51;16.80;99.90
24226;DHT22;51462;51.422;5.514;2023-05-03T11:50:18;16.90;99.90
24226;DHT22;51462;51.422;5.514;2023-05-03T11:52:44;16.90;99.90
24226;DHT22;51462;51.422;5.514;2023-05-03T11:55:10;17.10;99.90
24226;DHT22;51462;51.422;5.514;2023-05-03T11:57:36;17.10;99.90
24226;DHT22;51462;51.422;5.514;2023-05-03T12:00:13;17.10;99.90
24226;DHT22;51462;51.422;5.514;2023-05-03T12:02:42;17.50;99.90
24226;DHT22;51462;51.422;5.514;2023-05-03T12:05:08;17.40;99.90
24226;DHT22;51462;51.422;5.514;2023-05-03T12:07:35;17.20;99.90
24226;DHT22;51462;51.422;5.514;2023-05-03T12:10:17;17.40;99.90
24226;DHT22;51462;51.422;5.514;2023-05-03T12:12:57;17.50;99.90
24226;DHT22;51462;51.422;5.514;2023-05-03T12:15:31;17.90;99.90
24226;DHT22;51462;51.422;5.514;2023-05-03T12:17:58;17.80;99.90
24226;DHT22;51462;51.422;5.514;2023-05-03T12:20:25;17.70;99.90
24226;DHT22;51462;51.422;5.514;2023-05-03T12:22:59;18.10;99.90
24226;DHT22;51462;51.422;5.514;2023-05-03T12:25:27;18.10;99.90
24226;DHT22;51462;51.422;5.514;2023-05-03T12:27:53;18.00;99.90
24226;DHT22;51462;51.422;5.514;2023-05-03T12:30:20;18.70;99.90
24226;DHT22;51462;51.422;5.514;2023-05-03T12:32:46;18.70;99.90
24226;DHT22;51462;51.422;5.514;2023-05-03T12:35:12;18.80;99.90
24226;DHT22;51462;51.422;5.514;2023-05-03T12:37:37;18.50;99.90
24226;DHT22;51462;51.422;5.514;2023-05-03T12:40:04;18.70;99.90
24226;DHT22;51462;51.422;5.514;2023-05-03T12:42:30;18.80;99.90
24226;DHT22;51462;51.422;5.514;2023-05-03T12:44:57;19.20;99.90
24226;DHT22;51462;51.422;5.514;2023-05-03T12:47:23;19.10;99.90
24226;DHT22;51462;51.422;5.514;2023-05-03T12:49:48;19.10;99.90
24226;DHT22;51462;51.422;5.514;2023-05-03T12:52:14;18.90;99.90
24226;DHT22;51462;51.422;5.514;2023-05-03T12:54:39;19.00;99.90
24226;DHT22;51462;51.422;5.514;2023-05-03T12:57:06;19.30;99.90
24226;DHT22;51462;51.422;5.514;2023-05-03T12:59:31;19.20;99.90
24226;DHT22;51462;51.422;5.514;2023-05-03T13:01:57;19.10;99.90
24226;DHT22;51462;51.422;5.514;2023-05-03T13:04:23;19.30;99.90
24226;DHT22;51462;51.422;5.514;2023-05-03T13:06:48;19.70;99.90
24226;DHT22;51462;51.422;5.514;2023-05-03T13:09:15;19.90;99.90
24226;DHT22;51462;51.422;5.514;2023-05-03T13:11:41;20.00;99.90
24226;DHT22;51462;51.422;5.514;2023-05-03T13:14:07;20.20;99.90
24226;DHT22;51462;51.422;5.514;2023-05-03T13:16:32;20.40;99.90
24226;DHT22;51462;51.422;5.514;2023-05-03T13:18:59;20.40;99.90
24226;DHT22;51462;51.422;5.514;2023-05-03T13:21:25;20.30;99.90
24226;DHT22;51462;51.422;5.514;2023-05-03T13:23:52;20.10;99.90
24226;DHT22;51462;51.422;5.514;2023-05-03T13:26:17;20.30;99.90
24226;DHT22;51462;51.422;5.514;2023-05-03T13:28:43;20.50;99.90
24226;DHT22;51462;51.422;5.514;2023-05-03T13:31:10;20.90;99.90
24226;DHT22;51462;51.422;5.514;2023-05-03T13:33:35;21.70;99.90
24226;DHT22;51462;51.422;5.514;2023-05-03T13:36:03;21.60;99.90
24226;DHT22;51462;51.422;5.514;2023-05-03T13:38:28;21.60;99.90
24226;DHT22;51462;51.422;5.514;2023-05-03T13:40:54;22.30;98.30
24226;DHT22;51462;51.422;5.514;2023-05-03T13:43:20;22.60;99.90
24226;DHT22;51462;51.422;5.514;2023-05-03T13:45:45;22.30;98.30
24226;DHT22;51462;51.422;5.514;2023-05-03T13:48:11;22.80;99.90
24226;DHT22;51462;51.422;5.514;2023-05-03T13:50:37;22.50;97.20
24226;DHT22;51462;51.422;5.514;2023-05-03T13:53:03;23.10;98.30
24226;DHT22;51462;51.422;5.514;2023-05-03T13:55:29;23.10;99.60
24226;DHT22;51462;51.422;5.514;2023-05-03T13:57:54;22.80;98.90
24226;DHT22;51462;51.422;5.514;2023-05-03T14:00:20;23.20;99.80
24226;DHT22;51462;51.422;5.514;2023-05-03T14:02:46;24.20;93.40
24226;DHT22;51462;51.422;5.514;2023-05-03T14:05:13;24.00;98.10
24226;DHT22;51462;51.422;5.514;2023-05-03T14:07:39;24.00;98.00
24226;DHT22;51462;51.422;5.514;2023-05-03T14:10:06;23.40;98.40
24226;DHT22;51462;51.422;5.514;2023-05-03T14:12:32;23.40;98.70
24226;DHT22;51462;51.422;5.514;2023-05-03T14:15:04;23.10;98.00
24226;DHT22;51462;51.422;5.514;2023-05-03T14:17:30;23.00;93.60
24226;DHT22;51462;51.422;5.514;2023-05-03T14:19:57;22.80;97.80
24226;DHT22;51462;51.422;5.514;2023-05-03T14:22:23;22.60;97.50
24226;DHT22;51462;51.422;5.514;2023-05-03T14:24:49;23.50;97.90
24226;DHT22;51462;51.422;5.514;2023-05-03T14:27:14;23.20;96.70
24226;DHT22;51462;51.422;5.514;2023-05-03T14:29:44;24.00;96.20
24226;DHT22;51462;51.422;5.514;2023-05-03T14:32:11;23.80;97.50
24226;DHT22;51462;51.422;5.514;2023-05-03T14:34:36;23.10;99.00
24226;DHT22;51462;51.422;5.514;2023-05-03T14:37:02;22.90;98.80
24226;DHT22;51462;51.422;5.514;2023-05-03T14:39:28;23.50;99.20
24226;DHT22;51462;51.422;5.514;2023-05-03T14:41:54;23.20;98.10
24226;DHT22;51462;51.422;5.514;2023-05-03T14:44:20;22.70;93.70
24226;DHT22;51462;51.422;5.514;2023-05-03T14:46:45;22.70;98.40
24226;DHT22;51462;51.422;5.514;2023-05-03T14:49:13;23.30;98.20
24226;DHT22;51462;51.422;5.514;2023-05-03T14:51:38;24.10;97.00
24226;DHT22;51462;51.422;5.514;2023-05-03T14:54:04;23.20;97.80
24226;DHT22;51462;51.422;5.514;2023-05-03T14:56:30;23.20;98.80
24226;DHT22;51462;51.422;5.514;2023-05-03T14:58:59;23.30;97.40
24226;DHT22;51462;51.422;5.514;2023-05-03T15:01:25;23.10;99.20
24226;DHT22;51462;51.422;5.514;2023-05-03T15:03:51;23.40;99.90
24226;DHT22;51462;51.422;5.514;2023-05-03T15:06:25;23.10;99.90
24226;DHT22;51462;51.422;5.514;2023-05-03T15:08:53;23.00;99.90
24226;DHT22;51462;51.422;5.514;2023-05-03T15:11:19;23.20;98.30
24226;DHT22;51462;51.422;5.514;2023-05-03T15:13:45;23.40;95.60
24226;DHT22;51462;51.422;5.514;2023-05-03T15:16:12;23.80;95.80
24226;DHT22;51462;51.422;5.514;2023-05-03T15:18:37;24.20;98.10
24226;DHT22;51462;51.422;5.514;2023-05-03T15:21:03;24.30;98.50
24226;DHT22;51462;51.422;5.514;2023-05-03T15:23:28;23.90;94.50
24226;DHT22;51462;51.422;5.514;2023-05-03T15:25:54;23.80;99.80
24226;DHT22;51462;51.422;5.514;2023-05-03T15:28:20;24.80;95.90
24226;DHT22;51462;51.422;5.514;2023-05-03T15:30:45;24.60;98.30
24226;DHT22;51462;51.422;5.514;2023-05-03T15:33:11;23.90;95.00
24226;DHT22;51462;51.422;5.514;2023-05-03T15:35:40;23.90;96.90
24226;DHT22;51462;51.422;5.514;2023-05-03T15:38:06;24.40;94.80
24226;DHT22;51462;51.422;5.514;2023-05-03T15:40:32;24.00;93.50
24226;DHT22;51462;51.422;5.514;2023-05-03T15:42:57;24.00;93.50
24226;DHT22;51462;51.422;5.514;2023-05-03T15:45:23;23.90;93.50
24226;DHT22;51462;51.422;5.514;2023-05-03T15:47:50;24.00;92.80
24226;DHT22;51462;51.422;5.514;2023-05-03T15:50:17;24.10;92.00
24226;DHT22;51462;51.422;5.514;2023-05-03T15:52:43;23.90;92.30
24226;DHT22;51462;51.422;5.514;2023-05-03T15:55:10;24.00;91.50
24226;DHT22;51462;51.422;5.514;2023-05-03T15:57:36;24.00;91.60
24226;DHT22;51462;51.422;5.514;2023-05-03T16:00:06;24.20;92.10
24226;DHT22;51462;51.422;5.514;2023-05-03T16:02:36;24.40;88.70